sensor_id;sensor_type;location;lat;lon;timestamp;temperature;humidity
33715;DHT22;20043;50.998;4.754;2022-12-18T00:02:17;-2.50;99.90
33715;DHT22;20043;50.998;4.754;2022-12-18T00:04:43;-2.40;99.90
33715;DHT22;20043;50.998;4.754;2022-12-18T00:07:08;-2.40;99.90
33715;DHT22;20043;50.998;4.754;2022-12-18T00:09:34;-2.50;99.90
33715;DHT22;20043;50.998;4.754;2022-12-18T00:11:59;-2.60;99.90
33715;DHT22;20043;50.998;4.754;2022-12-18T00:14:25;-2.70;99.90
33715;DHT22;20043;50.998;4.754;2022-12-18T00:16:50;-2.70;99.90
33715;DHT22;20043;50.998;4.754;2022-12-18T00:19:16;-2.70;99.90
33715;DHT22;20043;50.998;4.754;2022-12-18T00:21:42;-2.80;99.90
33715;DHT22;20043;50.998;4.754;2022-12-18T00:24:08;-2.80;99.90
33715;DHT22;20043;50.998;4.754;2022-12-18T00:26:34;-2.80;99.90
33715;DHT22;20043;50.998;4.754;2022-12-18T00:29:00;-2.80;99.90
33715;DHT22;20043;50.998;4.754;2022-12-18T00:31:26;-2.70;99.90
33715;DHT22;20043;50.998;4.754;2022-12-18T00:33:53;-2.80;99.90
33715;DHT22;20043;50.998;4.754;2022-12-18T00:36:20;-2.80;99.90
33715;DHT22;20043;50.998;4.754;2022-12-18T00:38:46;-2.80;99.90
33715;DHT22;20043;50.998;4.754;2022-12-18T00:41:12;-2.70;99.90
33715;DHT22;20043;50.998;4.754;2022-12-18T00:43:38;-2.70;99.90
33715;DHT22;20043;50.998;4.754;2022-12-18T00:46:04;-2.70;99.90
33715;DHT22;20043;50.998;4.754;2022-12-18T00:48:30;-2.70;99.90
33715;DHT22;20043;50.998;4.754;2022-12-18T00:50:56;-2.70;99.90
33715;DHT22;20043;50.998;4.754;2022-12-18T00:53:21;-2.70;99.90
33715;DHT22;20043;50.998;4.754;2022-12-18T00:55:47;-2.80;99.90
33715;DHT22;20043;50.998;4.754;2022-12-18T00:58:13;-2.80;99.90
33715;DHT22;20043;50.998;4.754;2022-12-18T01:00:38;-2.90;99.90
33715;DHT22;20043;50.998;4.754;2022-12-18T01:03:04;-3.00;99.90
33715;DHT22;20043;50.998;4.754;2022-12-18T01:05:30;-3.00;99.90
33715;DHT22;20043;50.998;4.754;2022-12-18T01:07:55;-2.90;99.90
33715;DHT22;20043;50.998;4.754;2022-12-18T01:10:21;-3.00;99.90
33715;DHT22;20043;50.998;4.754;2022-12-18T01:12:47;-3.10;99.90
33715;DHT22;20043;50.998;4.754;2022-12-18T01:15:12;-3.10;99.90
33715;DHT22;20043;50.998;4.754;2022-12-18T01:17:38;-3.10;99.90
33715;DHT22;20043;50.998;4.754;2022-12-18T01:20:04;-3.10;99.90
33715;DHT22;20043;50.998;4.754;2022-12-18T01:22:29;-3.10;99.90
33715;DHT22;20043;50.998;4.754;2022-12-18T01:24:55;-3.20;99.90
33715;DHT22;20043;50.998;4.754;2022-12-18T01:27:20;-3.30;99.90
33715;DHT22;20043;50.998;4.754;2022-12-18T01:29:47;-3.30;99.90
33715;DHT22;20043;50.998;4.754;2022-12-18T01:32:12;-3.30;99.90
33715;DHT22;20043;50.998;4.754;2022-12-18T01:34:38;-3.20;99.90
33715;DHT22;20043;50.998;4.754;2022-12-18T01:37:04;-3.20;99.90
33715;DHT22;20043;50.998;4.754;2022-12-18T01:39:29;-3.20;99.90
33715;DHT22;20043;50.998;4.754;2022-12-18T01:41:55;-3.40;99.90
33715;DHT22;20043;50.998;4.754;2022-12-18T01:47:12;-3.70;99.90
33715;DHT22;20043;50.998;4.754;2022-12-18T01:49:39;-3.80;99.90
33715;DHT22;20043;50.998;4.754;2022-12-18T01:52:05;-3.80;99.90
33715;DHT22;20043;50.998;4.754;2022-12-18T01:54:30;-3.80;99.90
33715;DHT22;20043;50.998;4.754;2022-12-18T01:56:56;-3.60;99.90
33715;DHT22;20043;50.998;4.754;2022-12-18T01:59:21;-3.50;99.90
33715;DHT22;20043;50.998;4.754;2022-12-18T02:01:47;-3.60;99.90
33715;DHT22;20043;50.998;4.754;2022-12-18T02:06:44;-3.80;99.90
33715;DHT22;20043;50.998;4.754;2022-12-18T02:09:14;-3.80;99.90
33715;DHT22;20043;50.998;4.754;2022-12-18T02:11:46;-3.80;99.90
33715;DHT22;20043;50.998;4.754;2022-12-18T02:14:21;-3.90;99.90
33715;DHT22;20043;50.998;4.754;2022-12-18T02:19:27;-3.90;99.90
33715;DHT22;20043;50.998;4.754;2022-12-18T02:27:11;-3.80;99.90
33715;DHT22;20043;50.998;4.754;2022-12-18T02:29:48;-3.80;99.90
33715;DHT22;20043;50.998;4.754;2022-12-18T02:32:18;-4.00;99.90
33715;DHT22;20043;50.998;4.754;2022-12-18T02:34:45;-4.20;99.90
33715;DHT22;20043;50.998;4.754;2022-12-18T02:37:18;-4.20;99.90
33715;DHT22;20043;50.998;4.754;2022-12-18T02:39:45;-4.10;99.90
33715;DHT22;20043;50.998;4.754;2022-12-18T02:42:11;-4.00;99.90
33715;DHT22;20043;50.998;4.754;2022-12-18T02:44:45;-4.00;99.90
33715;DHT22;20043;50.998;4.754;2022-12-18T02:47:11;-4.00;99.90
33715;DHT22;20043;50.998;4.754;2022-12-18T02:59:44;-4.10;99.90
33715;DHT22;20043;50.998;4.754;2022-12-18T03:10:23;-4.10;99.90
33715;DHT22;20043;50.998;4.754;2022-12-18T03:12:54;-4.10;99.90
33715;DHT22;20043;50.998;4.754;2022-12-18T03:15:42;-4.20;99.90
33715;DHT22;20043;50.998;4.754;2022-12-18T03:18:08;-4.20;99.90
33715;DHT22;20043;50.998;4.754;2022-12-18T03:20:35;-4.30;99.90
33715;DHT22;20043;50.998;4.754;2022-12-18T03:23:05;-4.30;99.90
33715;DHT22;20043;50.998;4.754;2022-12-18T03:25:32;-4.20;99.90
33715;DHT22;20043;50.998;4.754;2022-12-18T03:28:00;-4.20;99.90
33715;DHT22;20043;50.998;4.754;2022-12-18T03:30:26;-4.40;99.90
33715;DHT22;20043;50.998;4.754;2022-12-18T03:35:26;-4.30;99.90
33715;DHT22;20043;50.998;4.754;2022-12-18T03:37:53;-4.40;99.90
33715;DHT22;20043;50.998;4.754;2022-12-18T03:40:20;-4.50;99.90
33715;DHT22;20043;50.998;4.754;2022-12-18T03:42:51;-4.50;99.90
33715;DHT22;20043;50.998;4.754;2022-12-18T03:45:22;-4.50;99.90
33715;DHT22;20043;50.998;4.754;2022-12-18T03:48:06;-4.50;99.90
33715;DHT22;20043;50.998;4.754;2022-12-18T03:50:35;-4.50;99.90
33715;DHT22;20043;50.998;4.754;2022-12-18T03:55:46;-4.40;99.90
33715;DHT22;20043;50.998;4.754;2022-12-18T03:58:13;-4.30;99.90
33715;DHT22;20043;50.998;4.754;2022-12-18T04:00:40;-4.30;99.90
33715;DHT22;20043;50.998;4.754;2022-12-18T04:03:06;-4.40;99.90
33715;DHT22;20043;50.998;4.754;2022-12-18T04:05:33;-4.40;99.90
33715;DHT22;20043;50.998;4.754;2022-12-18T04:07:59;-4.60;99.90
33715;DHT22;20043;50.998;4.754;2022-12-18T04:10:26;-4.60;99.90
33715;DHT22;20043;50.998;4.754;2022-12-18T04:12:54;-4.60;99.90
33715;DHT22;20043;50.998;4.754;2022-12-18T04:15:20;-4.60;99.90
33715;DHT22;20043;50.998;4.754;2022-12-18T04:17:49;-4.60;99.90
33715;DHT22;20043;50.998;4.754;2022-12-18T04:20:15;-4.80;99.90
33715;DHT22;20043;50.998;4.754;2022-12-18T04:22:40;-5.00;99.90
33715;DHT22;20043;50.998;4.754;2022-12-18T04:25:06;-5.10;99.90
33715;DHT22;20043;50.998;4.754;2022-12-18T04:27:32;-5.00;99.90
33715;DHT22;20043;50.998;4.754;2022-12-18T04:29:57;-4.80;99.90
33715;DHT22;20043;50.998;4.754;2022-12-18T04:32:23;-4.50;99.90
33715;DHT22;20043;50.998;4.754;2022-12-18T04:34:48;-4.70;99.90
33715;DHT22;20043;50.998;4.754;2022-12-18T04:37:14;-4.70;99.90
33715;DHT22;20043;50.998;4.754;2022-12-18T04:39:39;-4.70;99.90
33715;DHT22;20043;50.998;4.754;2022-12-18T04:42:05;-4.70;99.90
33715;DHT22;20043;50.998;4.754;2022-12-18T04:44:30;-4.80;99.90
33715;DHT22;20043;50.998;4.754;2022-12-18T04:46:56;-4.80;99.90
33715;DHT22;20043;50.998;4.754;2022-12-18T04:49:21;-4.90;99.90
33715;DHT22;20043;50.998;4.754;2022-12-18T04:51:47;-4.80;99.90
33715;DHT22;20043;50.998;4.754;2022-12-18T04:54:12;-4.80;99.90
33715;DHT22;20043;50.998;4.754;2022-12-18T04:56:38;-4.70;99.90
33715;DHT22;20043;50.998;4.754;2022-12-18T04:59:03;-4.40;99.90
33715;DHT22;20043;50.998;4.754;2022-12-18T05:01:35;-4.30;99.90
33715;DHT22;20043;50.998;4.754;2022-12-18T05:04:01;-4.20;99.90
33715;DHT22;20043;50.998;4.754;2022-12-18T05:06:26;-4.10;99.90
33715;DHT22;20043;50.998;4.754;2022-12-18T05:08:52;-4.00;99.90
33715;DHT22;20043;50.998;4.754;2022-12-18T05:11:17;-4.00;99.90
33715;DHT22;20043;50.998;4.754;2022-12-18T05:13:43;-4.00;99.90
33715;DHT22;20043;50.998;4.754;2022-12-18T05:16:09;-4.30;99.90
33715;DHT22;20043;50.998;4.754;2022-12-18T05:18:35;-4.20;99.90
33715;DHT22;20043;50.998;4.754;2022-12-18T05:21:01;-4.10;99.90
33715;DHT22;20043;50.998;4.754;2022-12-18T05:23:27;-4.20;99.90
33715;DHT22;20043;50.998;4.754;2022-12-18T05:25:53;-4.20;99.90
33715;DHT22;20043;50.998;4.754;2022-12-18T05:28:19;-4.20;99.90
33715;DHT22;20043;50.998;4.754;2022-12-18T05:30:47;-4.30;99.90
33715;DHT22;20043;50.998;4.754;2022-12-18T05:33:12;-4.20;99.90
33715;DHT22;20043;50.998;4.754;2022-12-18T05:35:38;-4.40;99.90
33715;DHT22;20043;50.998;4.754;2022-12-18T05:38:03;-4.30;99.90
33715;DHT22;20043;50.998;4.754;2022-12-18T05:40:29;-4.20;99.90
33715;DHT22;20043;50.998;4.754;2022-12-18T05:42:54;-4.20;99.90
33715;DHT22;20043;50.998;4.754;2022-12-18T05:45:20;-4.30;99.90
33715;DHT22;20043;50.998;4.754;2022-12-18T05:47:45;-4.30;99.90
33715;DHT22;20043;50.998;4.754;2022-12-18T05:50:11;-4.30;99.90
33715;DHT22;20043;50.998;4.754;2022-12-18T05:52:36;-4.50;99.90
33715;DHT22;20043;50.998;4.754;2022-12-18T05:55:01;-4.50;99.90
33715;DHT22;20043;50.998;4.754;2022-12-18T05:57:27;-4.60;99.90
33715;DHT22;20043;50.998;4.754;2022-12-18T05:59:52;-4.50;99.90
33715;DHT22;20043;50.998;4.754;2022-12-18T06:02:18;-4.60;99.90
33715;DHT22;20043;50.998;4.754;2022-12-18T06:04:46;-4.50;99.90
33715;DHT22;20043;50.998;4.754;2022-12-18T06:07:12;-4.70;99.90
33715;DHT22;20043;50.998;4.754;2022-12-18T06:09:37;-4.70;99.90
33715;DHT22;20043;50.998;4.754;2022-12-18T06:12:03;-4.80;99.90
33715;DHT22;20043;50.998;4.754;2022-12-18T06:14:29;-4.80;99.90
33715;DHT22;20043;50.998;4.754;2022-12-18T06:16:54;-4.80;99.90
33715;DHT22;20043;50.998;4.754;2022-12-18T06:19:20;-4.70;99.90
33715;DHT22;20043;50.998;4.754;2022-12-18T06:21:46;-4.70;99.90
33715;DHT22;20043;50.998;4.754;2022-12-18T06:24:11;-4.70;99.90
33715;DHT22;20043;50.998;4.754;2022-12-18T06:26:37;-4.80;99.90
33715;DHT22;20043;50.998;4.754;2022-12-18T06:29:03;-4.80;99.90
33715;DHT22;20043;50.998;4.754;2022-12-18T06:31:28;-4.70;99.90
33715;DHT22;20043;50.998;4.754;2022-12-18T06:33:54;-4.70;99.90
33715;DHT22;20043;50.998;4.754;2022-12-18T06:36:19;-4.60;99.90
33715;DHT22;20043;50.998;4.754;2022-12-18T06:38:46;-4.70;99.90
33715;DHT22;20043;50.998;4.754;2022-12-18T06:41:15;-4.80;99.90
33715;DHT22;20043;50.998;4.754;2022-12-18T06:43:41;-4.90;99.90
33715;DHT22;20043;50.998;4.754;2022-12-18T06:46:06;-4.90;99.90
33715;DHT22;20043;50.998;4.754;2022-12-18T06:48:32;-4.80;99.90
33715;DHT22;20043;50.998;4.754;2022-12-18T06:50:58;-4.80;99.90
33715;DHT22;20043;50.998;4.754;2022-12-18T06:53:23;-4.70;99.90
33715;DHT22;20043;50.998;4.754;2022-12-18T06:55:49;-4.60;99.90
33715;DHT22;20043;50.998;4.754;2022-12-18T06:58:14;-4.60;99.90
33715;DHT22;20043;50.998;4.754;2022-12-18T07:00:40;-4.60;99.90
33715;DHT22;20043;50.998;4.754;2022-12-18T07:03:05;-4.60;99.90
33715;DHT22;20043;50.998;4.754;2022-12-18T07:05:31;-4.40;99.90
33715;DHT22;20043;50.998;4.754;2022-12-18T07:07:57;-4.40;99.90
33715;DHT22;20043;50.998;4.754;2022-12-18T07:10:22;-4.30;99.90
33715;DHT22;20043;50.998;4.754;2022-12-18T07:12:48;-4.20;99.90
33715;DHT22;20043;50.998;4.754;2022-12-18T07:15:13;-4.20;99.90
33715;DHT22;20043;50.998;4.754;2022-12-18T07:17:39;-4.20;99.90
33715;DHT22;20043;50.998;4.754;2022-12-18T07:20:04;-4.20;99.90
33715;DHT22;20043;50.998;4.754;2022-12-18T07:22:30;-4.20;99.90
33715;DHT22;20043;50.998;4.754;2022-12-18T07:24:55;-4.10;99.90
33715;DHT22;20043;50.998;4.754;2022-12-18T07:27:21;-4.00;99.90
33715;DHT22;20043;50.998;4.754;2022-12-18T07:29:46;-4.00;99.90
33715;DHT22;20043;50.998;4.754;2022-12-18T07:32:12;-3.90;99.90
33715;DHT22;20043;50.998;4.754;2022-12-18T07:34:37;-3.90;99.90
33715;DHT22;20043;50.998;4.754;2022-12-18T07:37:09;-3.90;99.90
33715;DHT22;20043;50.998;4.754;2022-12-18T07:39:34;-3.90;99.90
33715;DHT22;20043;50.998;4.754;2022-12-18T07:42:00;-3.80;99.90
33715;DHT22;20043;50.998;4.754;2022-12-18T07:44:44;-3.90;99.90
33715;DHT22;20043;50.998;4.754;2022-12-18T07:47:09;-4.00;99.90
33715;DHT22;20043;50.998;4.754;2022-12-18T07:49:35;-3.90;99.90
33715;DHT22;20043;50.998;4.754;2022-12-18T07:52:00;-3.80;99.90
33715;DHT22;20043;50.998;4.754;2022-12-18T07:54:26;-3.80;99.90
33715;DHT22;20043;50.998;4.754;2022-12-18T07:56:52;-3.70;99.90
33715;DHT22;20043;50.998;4.754;2022-12-18T07:59:18;-3.80;99.90
33715;DHT22;20043;50.998;4.754;2022-12-18T08:01:43;-3.70;99.90
33715;DHT22;20043;50.998;4.754;2022-12-18T08:04:09;-3.70;99.90
33715;DHT22;20043;50.998;4.754;2022-12-18T08:06:34;-3.70;99.90
33715;DHT22;20043;50.998;4.754;2022-12-18T08:09:00;-3.70;99.90
33715;DHT22;20043;50.998;4.754;2022-12-18T08:11:26;-3.80;99.90
33715;DHT22;20043;50.998;4.754;2022-12-18T08:13:52;-3.90;99.90
33715;DHT22;20043;50.998;4.754;2022-12-18T08:16:18;-3.90;99.90
33715;DHT22;20043;50.998;4.754;2022-12-18T08:18:44;-3.80;99.90
33715;DHT22;20043;50.998;4.754;2022-12-18T08:21:10;-3.70;99.90
33715;DHT22;20043;50.998;4.754;2022-12-18T08:23:36;-3.60;99.90
33715;DHT22;20043;50.998;4.754;2022-12-18T08:26:02;-3.50;99.90
33715;DHT22;20043;50.998;4.754;2022-12-18T08:28:27;-3.50;99.90
33715;DHT22;20043;50.998;4.754;2022-12-18T08:30:53;-3.40;99.90
33715;DHT22;20043;50.998;4.754;2022-12-18T08:33:18;-3.20;99.90
33715;DHT22;20043;50.998;4.754;2022-12-18T08:35:44;-3.20;99.90
33715;DHT22;20043;50.998;4.754;2022-12-18T08:38:09;-3.10;99.90
33715;DHT22;20043;50.998;4.754;2022-12-18T08:40:35;-3.10;99.90
33715;DHT22;20043;50.998;4.754;2022-12-18T08:43:00;-3.00;99.90
33715;DHT22;20043;50.998;4.754;2022-12-18T08:46:04;-2.90;99.90
33715;DHT22;20043;50.998;4.754;2022-12-18T08:48:29;-2.80;99.90
33715;DHT22;20043;50.998;4.754;2022-12-18T08:50:55;-2.60;99.90
33715;DHT22;20043;50.998;4.754;2022-12-18T08:53:21;-2.60;99.90
33715;DHT22;20043;50.998;4.754;2022-12-18T08:55:46;-2.40;99.90
33715;DHT22;20043;50.998;4.754;2022-12-18T08:58:12;-2.20;99.90
33715;DHT22;20043;50.998;4.754;2022-12-18T09:00:37;-2.20;99.90
33715;DHT22;20043;50.998;4.754;2022-12-18T09:03:03;-2.10;99.90
33715;DHT22;20043;50.998;4.754;2022-12-18T09:05:28;-2.00;99.90
33715;DHT22;20043;50.998;4.754;2022-12-18T09:07:53;-2.10;99.90
33715;DHT22;20043;50.998;4.754;2022-12-18T09:10:19;-2.10;99.90
33715;DHT22;20043;50.998;4.754;2022-12-18T09:12:44;-2.00;99.90
33715;DHT22;20043;50.998;4.754;2022-12-18T09:15:10;-2.00;99.90
33715;DHT22;20043;50.998;4.754;2022-12-18T09:17:35;-2.00;99.90
33715;DHT22;20043;50.998;4.754;2022-12-18T09:20:01;-1.90;99.90
33715;DHT22;20043;50.998;4.754;2022-12-18T09:22:26;-1.80;99.90
33715;DHT22;20043;50.998;4.754;2022-12-18T09:24:52;-1.70;99.90
33715;DHT22;20043;50.998;4.754;2022-12-18T09:27:17;-1.70;99.90
33715;DHT22;20043;50.998;4.754;2022-12-18T09:29:43;-1.60;99.90
33715;DHT22;20043;50.998;4.754;2022-12-18T09:32:08;-1.50;99.90
33715;DHT22;20043;50.998;4.754;2022-12-18T09:34:34;-1.40;99.90
33715;DHT22;20043;50.998;4.754;2022-12-18T09:36:59;-1.50;99.90
33715;DHT22;20043;50.998;4.754;2022-12-18T09:39:25;-1.50;99.90
33715;DHT22;20043;50.998;4.754;2022-12-18T09:41:54;-1.40;99.90
33715;DHT22;20043;50.998;4.754;2022-12-18T09:44:22;-1.20;99.90
33715;DHT22;20043;50.998;4.754;2022-12-18T09:46:51;-1.00;99.90
33715;DHT22;20043;50.998;4.754;2022-12-18T09:49:18;-1.10;99.90
33715;DHT22;20043;50.998;4.754;2022-12-18T09:51:47;-1.20;99.90
33715;DHT22;20043;50.998;4.754;2022-12-18T09:54:16;-1.10;99.90
33715;DHT22;20043;50.998;4.754;2022-12-18T09:56:44;-1.00;99.90
33715;DHT22;20043;50.998;4.754;2022-12-18T10:01:47;-1.40;99.90
33715;DHT22;20043;50.998;4.754;2022-12-18T10:04:12;-1.40;99.90
33715;DHT22;20043;50.998;4.754;2022-12-18T10:09:14;-1.30;99.90
33715;DHT22;20043;50.998;4.754;2022-12-18T10:22:05;-0.50;99.90
33715;DHT22;20043;50.998;4.754;2022-12-18T10:27:17;-0.70;99.90
33715;DHT22;20043;50.998;4.754;2022-12-18T10:29:43;-0.60;99.90
33715;DHT22;20043;50.998;4.754;2022-12-18T10:32:13;-0.50;99.90
33715;DHT22;20043;50.998;4.754;2022-12-18T10:34:39;-0.40;99.90
33715;DHT22;20043;50.998;4.754;2022-12-18T10:37:06;-0.40;99.90
33715;DHT22;20043;50.998;4.754;2022-12-18T10:39:36;-0.40;99.90
33715;DHT22;20043;50.998;4.754;2022-12-18T10:42:15;-0.30;99.90
33715;DHT22;20043;50.998;4.754;2022-12-18T10:44:41;-0.30;99.90
33715;DHT22;20043;50.998;4.754;2022-12-18T10:47:11;-0.30;99.90
33715;DHT22;20043;50.998;4.754;2022-12-18T10:49:37;-0.20;99.90
33715;DHT22;20043;50.998;4.754;2022-12-18T10:52:07;-0.20;99.90
33715;DHT22;20043;50.998;4.754;2022-12-18T10:54:33;-0.10;99.90
33715;DHT22;20043;50.998;4.754;2022-12-18T10:57:15;-0.10;99.90
33715;DHT22;20043;50.998;4.754;2022-12-18T10:59:49;0.00;99.90
33715;DHT22;20043;50.998;4.754;2022-12-18T11:02:25;-0.10;99.90
33715;DHT22;20043;50.998;4.754;2022-12-18T11:04:51;-0.10;99.90
33715;DHT22;20043;50.998;4.754;2022-12-18T11:07:17;-0.10;99.90
33715;DHT22;20043;50.998;4.754;2022-12-18T11:09:42;0.00;99.90
33715;DHT22;20043;50.998;4.754;2022-12-18T11:19:57;0.30;99.90
33715;DHT22;20043;50.998;4.754;2022-12-18T11:22:29;0.50;99.90
33715;DHT22;20043;50.998;4.754;2022-12-18T11:27:24;0.60;99.90
33715;DHT22;20043;50.998;4.754;2022-12-18T11:29:50;0.70;99.90
33715;DHT22;20043;50.998;4.754;2022-12-18T11:34:45;1.00;99.90
33715;DHT22;20043;50.998;4.754;2022-12-18T11:37:12;1.10;99.90
33715;DHT22;20043;50.998;4.754;2022-12-18T11:39:43;1.20;99.90
33715;DHT22;20043;50.998;4.754;2022-12-18T11:44:48;1.30;99.90
33715;DHT22;20043;50.998;4.754;2022-12-18T11:47:20;1.20;99.90
33715;DHT22;20043;50.998;4.754;2022-12-18T11:49:49;1.10;99.90
33715;DHT22;20043;50.998;4.754;2022-12-18T11:54:52;1.20;99.90
33715;DHT22;20043;50.998;4.754;2022-12-18T12:04:59;1.40;99.90
33715;DHT22;20043;50.998;4.754;2022-12-18T12:10:25;1.30;99.90
33715;DHT22;20043;50.998;4.754;2022-12-18T12:18:25;1.50;99.90
33715;DHT22;20043;50.998;4.754;2022-12-18T12:26:15;1.70;99.90
33715;DHT22;20043;50.998;4.754;2022-12-18T12:34:02;1.90;99.90
33715;DHT22;20043;50.998;4.754;2022-12-18T12:36:34;1.80;99.90
33715;DHT22;20043;50.998;4.754;2022-12-18T12:39:05;1.90;99.90
33715;DHT22;20043;50.998;4.754;2022-12-18T12:41:32;2.00;99.90
33715;DHT22;20043;50.998;4.754;2022-12-18T12:44:22;2.10;99.90
33715;DHT22;20043;50.998;4.754;2022-12-18T12:46:48;2.20;99.90
33715;DHT22;20043;50.998;4.754;2022-12-18T12:49:18;2.30;99.90
33715;DHT22;20043;50.998;4.754;2022-12-18T12:52:07;2.20;99.90
33715;DHT22;20043;50.998;4.754;2022-12-18T12:54:36;2.00;99.90
33715;DHT22;20043;50.998;4.754;2022-12-18T12:59:32;2.10;99.90
33715;DHT22;20043;50.998;4.754;2022-12-18T13:04:36;2.10;99.90
33715;DHT22;20043;50.998;4.754;2022-12-18T13:07:19;2.20;99.90
33715;DHT22;20043;50.998;4.754;2022-12-18T13:12:29;2.20;99.90
33715;DHT22;20043;50.998;4.754;2022-12-18T13:15:20;2.30;99.90
33715;DHT22;20043;50.998;4.754;2022-12-18T13:17:46;2.10;99.90
33715;DHT22;20043;50.998;4.754;2022-12-18T13:20:12;2.10;99.90
33715;DHT22;20043;50.998;4.754;2022-12-18T13:22:43;2.10;99.90
33715;DHT22;20043;50.998;4.754;2022-12-18T13:25:42;2.10;99.90
33715;DHT22;20043;50.998;4.754;2022-12-18T13:28:08;2.20;99.90
33715;DHT22;20043;50.998;4.754;2022-12-18T13:38:23;2.20;99.90
33715;DHT22;20043;50.998;4.754;2022-12-18T13:45:47;2.50;99.90
33715;DHT22;20043;50.998;4.754;2022-12-18T13:48:16;2.40;99.90
33715;DHT22;20043;50.998;4.754;2022-12-18T13:50:42;2.30;99.90
33715;DHT22;20043;50.998;4.754;2022-12-18T13:53:15;2.30;99.90
33715;DHT22;20043;50.998;4.754;2022-12-18T13:55:44;2.40;99.90
33715;DHT22;20043;50.998;4.754;2022-12-18T13:58:11;2.40;99.90
33715;DHT22;20043;50.998;4.754;2022-12-18T14:00:40;2.50;99.90
33715;DHT22;20043;50.998;4.754;2022-12-18T14:03:17;2.70;99.90
33715;DHT22;20043;50.998;4.754;2022-12-18T14:05:44;2.80;99.90
33715;DHT22;20043;50.998;4.754;2022-12-18T14:08:11;2.80;99.90
33715;DHT22;20043;50.998;4.754;2022-12-18T14:10:41;2.60;99.90
33715;DHT22;20043;50.998;4.754;2022-12-18T14:13:08;2.50;99.90
33715;DHT22;20043;50.998;4.754;2022-12-18T14:15:35;2.50;99.90
33715;DHT22;20043;50.998;4.754;2022-12-18T14:20:43;2.20;99.90
33715;DHT22;20043;50.998;4.754;2022-12-18T14:25:52;2.50;99.90
33715;DHT22;20043;50.998;4.754;2022-12-18T14:28:18;2.50;99.90
33715;DHT22;20043;50.998;4.754;2022-12-18T14:30:44;2.50;99.90
33715;DHT22;20043;50.998;4.754;2022-12-18T14:35:36;2.70;99.90
33715;DHT22;20043;50.998;4.754;2022-12-18T14:40:34;2.90;99.90
33715;DHT22;20043;50.998;4.754;2022-12-18T14:43:00;2.80;99.90
33715;DHT22;20043;50.998;4.754;2022-12-18T14:45:35;2.90;99.90
33715;DHT22;20043;50.998;4.754;2022-12-18T14:48:01;2.80;99.90
33715;DHT22;20043;50.998;4.754;2022-12-18T14:50:31;2.80;99.90
33715;DHT22;20043;50.998;4.754;2022-12-18T14:52:56;2.70;99.90
33715;DHT22;20043;50.998;4.754;2022-12-18T14:55:22;2.60;99.90
33715;DHT22;20043;50.998;4.754;2022-12-18T14:57:51;2.60;99.90
33715;DHT22;20043;50.998;4.754;2022-12-18T15:00:18;2.60;99.90
33715;DHT22;20043;50.998;4.754;2022-12-18T15:02:45;2.70;99.90
33715;DHT22;20043;50.998;4.754;2022-12-18T15:07:44;2.80;99.90
33715;DHT22;20043;50.998;4.754;2022-12-18T15:12:37;2.80;99.90
33715;DHT22;20043;50.998;4.754;2022-12-18T15:15:04;2.90;99.90
33715;DHT22;20043;50.998;4.754;2022-12-18T15:17:30;2.60;99.90
33715;DHT22;20043;50.998;4.754;2022-12-18T15:20:00;2.60;99.90
33715;DHT22;20043;50.998;4.754;2022-12-18T15:22:27;2.70;99.90
33715;DHT22;20043;50.998;4.754;2022-12-18T15:24:54;2.70;99.90
33715;DHT22;20043;50.998;4.754;2022-12-18T15:27:23;2.70;99.90
33715;DHT22;20043;50.998;4.754;2022-12-18T15:29:59;2.70;99.90
33715;DHT22;20043;50.998;4.754;2022-12-18T15:32:25;2.60;99.90
33715;DHT22;20043;50.998;4.754;2022-12-18T15:34:50;2.50;99.90
33715;DHT22;20043;50.998;4.754;2022-12-18T15:37:26;2.30;99.90
33715;DHT22;20043;50.998;4.754;2022-12-18T15:39:52;2.10;99.90
33715;DHT22;20043;50.998;4.754;2022-12-18T15:42:17;2.10;99.90
33715;DHT22;20043;50.998;4.754;2022-12-18T15:45:01;2.20;99.90
33715;DHT22;20043;50.998;4.754;2022-12-18T15:47:27;2.20;99.90
33715;DHT22;20043;50.998;4.754;2022-12-18T15:49:53;2.10;99.90
33715;DHT22;20043;50.998;4.754;2022-12-18T15:52:18;2.00;99.90
33715;DHT22;20043;50.998;4.754;2022-12-18T15:54:51;2.00;99.90
33715;DHT22;20043;50.998;4.754;2022-12-18T15:57:35;1.90;99.90
33715;DHT22;20043;50.998;4.754;2022-12-18T16:00:00;2.00;99.90
33715;DHT22;20043;50.998;4.754;2022-12-18T16:02:26;2.00;99.90
33715;DHT22;20043;50.998;4.754;2022-12-18T16:04:52;2.00;99.90
33715;DHT22;20043;50.998;4.754;2022-12-18T16:07:19;2.00;99.90
33715;DHT22;20043;50.998;4.754;2022-12-18T16:09:45;2.10;99.90
33715;DHT22;20043;50.998;4.754;2022-12-18T16:12:14;2.20;99.90
33715;DHT22;20043;50.998;4.754;2022-12-18T16:14:40;2.30;99.90
33715;DHT22;20043;50.998;4.754;2022-12-18T16:17:06;2.40;99.90
33715;DHT22;20043;50.998;4.754;2022-12-18T16:19:34;2.30;99.90
33715;DHT22;20043;50.998;4.754;2022-12-18T16:21:59;2.30;99.90
33715;DHT22;20043;50.998;4.754;2022-12-18T16:24:26;2.40;99.90
33715;DHT22;20043;50.998;4.754;2022-12-18T16:26:52;2.40;99.90
33715;DHT22;20043;50.998;4.754;2022-12-18T16:29:18;2.40;99.90
33715;DHT22;20043;50.998;4.754;2022-12-18T16:31:44;2.40;99.90
33715;DHT22;20043;50.998;4.754;2022-12-18T16:34:13;2.40;99.90
33715;DHT22;20043;50.998;4.754;2022-12-18T16:36:40;2.50;99.90
33715;DHT22;20043;50.998;4.754;2022-12-18T16:39:06;2.40;99.90
33715;DHT22;20043;50.998;4.754;2022-12-18T16:41:31;2.30;99.90
33715;DHT22;20043;50.998;4.754;2022-12-18T16:43:57;2.20;99.90
33715;DHT22;20043;50.998;4.754;2022-12-18T16:46:22;2.20;99.90
33715;DHT22;20043;50.998;4.754;2022-12-18T16:48:48;2.20;99.90
33715;DHT22;20043;50.998;4.754;2022-12-18T16:51:13;2.20;99.90
33715;DHT22;20043;50.998;4.754;2022-12-18T16:53:39;2.20;99.90
33715;DHT22;20043;50.998;4.754;2022-12-18T16:56:04;2.20;99.90
33715;DHT22;20043;50.998;4.754;2022-12-18T16:58:30;2.20;99.90
33715;DHT22;20043;50.998;4.754;2022-12-18T17:00:55;2.10;99.90
33715;DHT22;20043;50.998;4.754;2022-12-18T17:03:21;2.10;99.90
33715;DHT22;20043;50.998;4.754;2022-12-18T17:05:46;2.00;99.90
33715;DHT22;20043;50.998;4.754;2022-12-18T17:08:12;2.00;99.90
33715;DHT22;20043;50.998;4.754;2022-12-18T17:10:37;1.90;99.90
33715;DHT22;20043;50.998;4.754;2022-12-18T17:13:03;1.90;99.90
33715;DHT22;20043;50.998;4.754;2022-12-18T17:15:28;2.00;99.90
33715;DHT22;20043;50.998;4.754;2022-12-18T17:17:54;2.10;99.90
33715;DHT22;20043;50.998;4.754;2022-12-18T17:20:19;2.30;99.90
33715;DHT22;20043;50.998;4.754;2022-12-18T17:22:45;2.40;99.90
33715;DHT22;20043;50.998;4.754;2022-12-18T17:25:10;2.50;99.90
33715;DHT22;20043;50.998;4.754;2022-12-18T17:27:35;2.40;99.90
33715;DHT22;20043;50.998;4.754;2022-12-18T17:30:01;2.40;99.90
33715;DHT22;20043;50.998;4.754;2022-12-18T17:32:27;2.50;99.90
33715;DHT22;20043;50.998;4.754;2022-12-18T17:34:52;2.50;99.90
33715;DHT22;20043;50.998;4.754;2022-12-18T17:37:18;2.50;99.90
33715;DHT22;20043;50.998;4.754;2022-12-18T17:39:43;2.60;99.90
33715;DHT22;20043;50.998;4.754;2022-12-18T17:42:09;2.60;99.90
33715;DHT22;20043;50.998;4.754;2022-12-18T17:44:35;2.70;99.90
33715;DHT22;20043;50.998;4.754;2022-12-18T17:47:00;2.60;99.90
33715;DHT22;20043;50.998;4.754;2022-12-18T17:49:26;2.70;99.90
33715;DHT22;20043;50.998;4.754;2022-12-18T17:51:51;2.70;99.90